Pickwick, Minnesota
Current Conditions -  °F | °C
As of 2:34 PM on Monday 22 Dec 2014 (Local Time) from KONA Reporting Station
Haze Haze  
Wind Chill: 30°   Ceiling: 1700
Heat Index: 37°   Visibility: 5mi
Dew Point: 34°   Wind: 10mph
Humidity: 87%   Direction: 120°ESE
Pressure: 29.64"   Gusts: NA
Location:  43.9823°N, 91.6349°W
Report Text: KONA 222034Z AUTO 12009KT 5SM BR OVC017 03/01 A2964 RMK AO2
Loading
Personal Weather Stations






























Interactive Weather Map New forecast layout! Learn more

10-Day Weather Forecast

Advertisements
Track Severe Weather on mobile